createdAt,value
2023-10-17T08:33:49.483Z,16.25
2023-10-17T08:36:17.770Z,14.45
2023-10-17T08:38:45.687Z,15.07
2023-10-17T08:41:13.140Z,42.03
2023-10-17T08:43:42.592Z,17.35
2023-10-17T08:46:12.590Z,16.00
2023-10-17T08:48:40.136Z,13.63
2023-10-17T08:51:18.171Z,11.13
2023-10-17T08:53:56.261Z,17.02
2023-10-17T08:56:23.863Z,19.25
2023-10-17T08:59:05.006Z,11.93
2023-10-17T09:01:32.780Z,12.55
2023-10-17T09:04:05.178Z,17.60
2023-10-17T09:06:38.959Z,78.55
2023-10-17T09:09:23.266Z,14.82
2023-10-17T09:12:16.591Z,17.50
2023-10-17T09:14:50.177Z,19.13
2023-10-17T09:17:26.591Z,12.05
2023-10-17T09:19:54.474Z,12.90
2023-10-17T09:22:21.842Z,15.65
2023-10-17T09:24:52.407Z,16.20
2023-10-17T09:27:20.566Z,14.67
2023-10-17T09:29:49.535Z,14.63
2023-10-17T09:32:36.283Z,16.08
2023-10-17T09:35:17.436Z,14.70
2023-10-17T09:37:52.387Z,15.75
2023-10-17T09:40:35.560Z,14.77
2023-10-17T09:43:05.320Z,13.27
2023-10-17T09:45:37.097Z,17.60
2023-10-17T09:48:08.543Z,24.05
2023-10-17T09:50:38.859Z,13.95
2023-10-17T09:53:13.932Z,16.10
2023-10-17T09:55:50.322Z,16.73
2023-10-17T09:58:25.510Z,17.83
2023-10-17T10:01:01.768Z,18.50
2023-10-17T10:03:30.467Z,16.30
2023-10-17T10:06:27.078Z,23.15
2023-10-17T10:09:28.109Z,14.45
2023-10-17T10:11:57.067Z,33.13
2023-10-17T10:14:34.805Z,15.32
2023-10-17T10:17:06.240Z,16.23
2023-10-17T10:19:43.099Z,18.67
2023-10-17T10:22:15.583Z,18.38
2023-10-17T10:24:46.467Z,48.95
2023-10-17T10:27:27.251Z,56.70
2023-10-17T10:29:57.868Z,58.33
2023-10-17T10:32:32.228Z,37.25
2023-10-17T10:35:02.966Z,50.50
2023-10-17T10:37:31.069Z,45.47
2023-10-17T10:40:18.661Z,30.92
2023-10-17T10:43:05.691Z,34.78
2023-10-17T10:45:42.250Z,26.60
2023-10-17T10:48:18.750Z,17.70
2023-10-17T10:50:47.785Z,14.75
2023-10-17T10:53:37.359Z,27.40
2023-10-17T10:56:12.790Z,25.13
2023-10-17T10:58:57.078Z,56.53
2023-10-17T11:01:26.719Z,55.50
2023-10-17T11:03:54.879Z,18.90
2023-10-17T11:06:28.851Z,18.35
2023-10-17T11:08:56.684Z,23.65
2023-10-17T11:11:24.223Z,20.02
2023-10-17T11:13:53.576Z,13.95
2023-10-17T11:16:23.358Z,16.15
2023-10-17T11:18:51.006Z,113.10
2023-10-17T11:21:24.477Z,60.25
2023-10-17T11:24:10.494Z,48.95
2023-10-17T11:26:43.178Z,28.02
2023-10-17T11:29:11.546Z,26.25
2023-10-17T11:31:42.692Z,18.45
2023-10-17T11:34:14.326Z,60.00
2023-10-17T11:36:48.560Z,67.80
2023-10-17T11:39:17.129Z,68.88
2023-10-17T11:41:55.435Z,95.18
2023-10-17T11:44:29.112Z,84.30
2023-10-17T11:46:59.996Z,18.10
2023-10-17T11:49:32.083Z,15.15
2023-10-17T11:52:02.772Z,26.83
2023-10-17T11:54:34.286Z,52.10
2023-10-17T11:57:16.421Z,20.85
2023-10-17T12:02:24.326Z,23.38
2023-10-17T12:04:51.501Z,18.65
2023-10-17T12:07:21.298Z,55.83
2023-10-17T12:09:48.726Z,19.15
2023-10-17T12:12:20.835Z,21.55
2023-10-17T12:14:52.678Z,12.00
2023-10-17T12:17:20.909Z,39.45
2023-10-17T12:19:48.836Z,38.42
2023-10-17T12:22:16.249Z,24.45
2023-10-17T12:24:44.274Z,29.73
2023-10-17T12:27:14.006Z,23.67
2023-10-17T12:29:42.373Z,11.20
2023-10-17T12:32:13.136Z,22.58
2023-10-17T12:34:43.903Z,22.40
2023-10-17T12:37:14.992Z,13.90
2023-10-17T12:39:44.531Z,15.13
2023-10-17T12:42:12.987Z,23.35
2023-10-17T12:44:40.606Z,13.07
2023-10-17T12:47:08.007Z,20.83
2023-10-17T12:49:35.240Z,28.67
2023-10-17T12:52:02.816Z,49.35
2023-10-17T12:54:30.436Z,34.60
2023-10-17T12:56:58.947Z,18.27
2023-10-17T12:59:26.096Z,44.15
2023-10-17T13:01:53.461Z,22.70
2023-10-17T13:04:22.041Z,17.20
2023-10-17T13:06:49.786Z,18.63
2023-10-17T13:09:17.318Z,15.88
2023-10-17T13:11:47.490Z,13.40
2023-10-17T13:14:14.861Z,11.13
2023-10-17T13:16:42.256Z,22.80
2023-10-17T13:19:17.752Z,11.38
2023-10-17T13:21:46.937Z,18.50
2023-10-17T13:24:15.946Z,13.50
2023-10-17T13:26:46.696Z,18.25
2023-10-17T13:29:14.404Z,25.35
2023-10-17T13:31:41.718Z,15.68
2023-10-17T13:34:09.124Z,25.00
2023-10-17T13:36:36.497Z,18.15
2023-10-17T13:39:07.026Z,15.90
2023-10-17T13:41:34.443Z,17.67
2023-10-17T13:44:01.736Z,17.65
2023-10-17T13:46:29.356Z,25.65
2023-10-17T13:48:59.681Z,16.00
2023-10-17T13:51:35.869Z,14.10
2023-10-17T13:54:07.198Z,12.32
2023-10-17T13:56:34.995Z,10.55
2023-10-17T13:59:02.411Z,23.40
2023-10-17T14:01:33.861Z,14.80
2023-10-17T14:04:03.629Z,15.02
2023-10-17T14:06:35.883Z,15.10
2023-10-17T14:09:05.063Z,12.82
2023-10-17T14:11:32.638Z,10.48
2023-10-17T14:14:00.004Z,13.18
2023-10-17T14:16:27.643Z,13.65
2023-10-17T14:19:20.962Z,16.80
2023-10-17T14:22:10.128Z,12.23
2023-10-17T14:24:56.137Z,11.30
2023-10-17T14:27:26.666Z,16.88
2023-10-17T14:29:54.613Z,13.73
2023-10-17T14:32:23.750Z,14.15
2023-10-17T14:34:51.465Z,12.55
2023-10-17T14:37:19.324Z,17.58
2023-10-17T14:39:47.448Z,17.90
2023-10-17T14:42:19.031Z,15.43
2023-10-17T14:44:47.834Z,12.93
2023-10-17T14:47:24.303Z,11.30
2023-10-17T14:49:51.713Z,14.45
2023-10-17T14:52:22.963Z,13.85
2023-10-17T14:54:51.673Z,14.05
2023-10-17T14:57:19.422Z,12.65
2023-10-17T14:59:47.133Z,14.30
2023-10-17T15:02:16.258Z,11.82
2023-10-17T15:04:44.102Z,12.13
2023-10-17T15:07:13.519Z,15.43
2023-10-17T15:09:41.044Z,15.13
2023-10-17T15:12:10.376Z,12.65
2023-10-17T15:14:37.770Z,18.33
2023-10-17T15:17:06.407Z,20.20
2023-10-17T15:19:34.333Z,19.42
2023-10-17T15:22:01.987Z,16.70
2023-10-17T15:24:30.353Z,13.90
2023-10-17T15:27:00.033Z,20.08
2023-10-17T15:29:28.804Z,15.57
2023-10-17T15:31:56.910Z,16.88
2023-10-17T15:34:24.388Z,16.42
2023-10-17T15:36:53.685Z,15.77
2023-10-17T15:39:29.166Z,16.23
2023-10-17T15:41:57.344Z,16.23
2023-10-17T15:44:24.591Z,18.38
2023-10-17T15:46:52.108Z,12.07
2023-10-17T15:49:19.412Z,12.00
2023-10-17T15:51:46.872Z,12.60
2023-10-17T15:54:14.179Z,12.35
2023-10-17T15:56:41.614Z,15.35
2023-10-17T15:59:09.839Z,13.63
2023-10-17T16:01:37.168Z,16.20
2023-10-17T16:04:04.592Z,11.65
2023-10-17T16:06:32.091Z,15.27
2023-10-17T16:09:00.149Z,15.75
2023-10-17T16:11:28.628Z,12.65
2023-10-17T16:13:55.972Z,15.82
2023-10-17T16:16:25.661Z,22.27
2023-10-17T16:18:53.913Z,19.25
2023-10-17T16:21:21.471Z,13.23
2023-10-17T16:23:51.550Z,15.90
2023-10-17T16:26:18.994Z,14.63
2023-10-17T16:28:46.566Z,17.15
2023-10-17T16:31:14.866Z,13.60
2023-10-17T16:33:42.324Z,14.10
2023-10-17T16:36:10.189Z,14.25
2023-10-17T16:38:39.866Z,15.75
2023-10-17T16:41:10.360Z,14.35
2023-10-17T16:43:37.807Z,19.38
2023-10-17T16:46:06.247Z,18.95
2023-10-17T16:48:34.087Z,17.58
2023-10-17T16:51:01.514Z,16.55
2023-10-17T16:53:31.627Z,19.10
2023-10-17T16:55:59.080Z,20.77
2023-10-17T16:58:27.932Z,21.58
2023-10-17T17:01:04.260Z,18.90
2023-10-17T17:03:31.883Z,16.40
2023-10-17T17:05:59.340Z,18.15
2023-10-17T17:08:26.726Z,15.82
2023-10-17T17:10:54.582Z,18.45
2023-10-17T17:13:22.061Z,14.82
2023-10-17T17:15:49.994Z,16.70
2023-10-17T17:20:48.599Z,26.87
2023-10-17T17:23:15.997Z,44.60
2023-10-17T17:25:43.472Z,18.13
2023-10-17T17:28:11.944Z,57.28
2023-10-17T17:30:42.433Z,31.35
2023-10-17T17:33:11.198Z,18.45
2023-10-17T17:35:38.681Z,43.25
2023-10-17T17:38:06.825Z,23.55
2023-10-17T17:40:36.105Z,61.90
2023-10-17T17:43:04.443Z,37.75
2023-10-17T17:45:31.972Z,27.95
2023-10-17T17:48:00.495Z,30.98
2023-10-17T17:50:28.086Z,45.03
2023-10-17T17:52:55.470Z,33.10
2023-10-17T17:55:23.227Z,35.50
2023-10-17T17:57:50.643Z,26.38
2023-10-17T18:00:19.979Z,23.98
2023-10-17T18:02:48.555Z,24.75
2023-10-17T18:05:22.083Z,20.23
2023-10-17T18:07:50.237Z,20.52
2023-10-17T18:10:17.917Z,16.50
2023-10-17T18:12:45.389Z,17.02
2023-10-17T18:15:13.591Z,18.40
2023-10-17T18:17:41.247Z,18.08
2023-10-17T18:20:10.379Z,15.50
2023-10-17T18:22:37.723Z,42.15
2023-10-17T18:25:05.965Z,86.40
2023-10-17T18:27:33.281Z,248.13
2023-10-17T18:30:00.808Z,70.72
2023-10-17T18:32:28.174Z,64.95
2023-10-17T18:34:56.266Z,24.67
2023-10-17T18:37:23.681Z,23.25
2023-10-17T18:39:51.012Z,30.42
2023-10-17T18:42:20.922Z,50.40
2023-10-17T18:44:56.727Z,30.90
2023-10-17T18:47:31.225Z,31.90
2023-10-17T18:49:59.674Z,64.43
2023-10-17T18:52:26.988Z,52.58
2023-10-17T18:54:56.196Z,27.33
2023-10-17T18:57:23.698Z,41.58
2023-10-17T18:59:50.918Z,78.68
2023-10-17T19:02:18.470Z,47.22
2023-10-17T19:04:46.858Z,58.63
2023-10-17T19:07:20.091Z,91.53
2023-10-17T19:09:47.717Z,99.22
2023-10-17T19:12:15.215Z,149.75
2023-10-17T19:14:42.531Z,121.78
2023-10-17T19:17:09.989Z,97.95
2023-10-17T19:19:37.292Z,52.65
2023-10-17T19:22:09.908Z,53.88
2023-10-17T19:24:38.245Z,24.85
2023-10-17T19:27:06.167Z,35.13
2023-10-17T19:29:34.070Z,66.40
2023-10-17T19:32:01.589Z,39.60
2023-10-17T19:34:29.996Z,50.03
2023-10-17T19:36:57.349Z,54.20
2023-10-17T19:39:26.173Z,39.42
2023-10-17T19:41:53.562Z,32.13
2023-10-17T19:44:23.510Z,34.13
2023-10-17T19:46:52.010Z,20.00
2023-10-17T19:49:19.957Z,52.85
2023-10-17T19:51:47.447Z,34.38
2023-10-17T19:54:14.821Z,28.10
2023-10-17T19:56:42.110Z,96.10
2023-10-17T19:59:11.369Z,131.50
2023-10-17T20:01:39.791Z,71.82
2023-10-17T20:04:08.847Z,55.58
2023-10-17T20:06:37.006Z,64.43
2023-10-17T20:09:08.648Z,161.57
2023-10-17T20:11:36.794Z,229.02
2023-10-17T20:14:05.023Z,107.38
2023-10-17T20:16:32.705Z,64.60
2023-10-17T20:19:00.541Z,19.95
2023-10-17T20:21:30.874Z,33.50
2023-10-17T20:23:59.366Z,24.50
2023-10-17T20:26:26.869Z,26.35
2023-10-17T20:28:54.091Z,44.67
2023-10-17T20:31:27.814Z,32.47
2023-10-17T20:33:57.164Z,41.88
2023-10-17T20:36:24.718Z,254.68
2023-10-17T20:38:52.039Z,129.10
2023-10-17T20:41:29.040Z,105.00
2023-10-17T20:43:56.426Z,38.33
2023-10-17T20:46:27.224Z,20.40
2023-10-17T20:48:57.245Z,32.78
2023-10-17T20:51:24.616Z,26.08
2023-10-17T20:53:52.003Z,25.52
2023-10-17T20:56:37.959Z,23.13
2023-10-17T20:59:08.335Z,18.52
2023-10-17T21:01:35.972Z,24.30
2023-10-17T21:04:04.048Z,18.63
2023-10-17T21:06:31.887Z,25.73
2023-10-17T21:08:59.249Z,25.35
2023-10-17T21:11:26.585Z,35.70
2023-10-17T21:13:54.531Z,44.90
2023-10-17T21:16:22.816Z,46.97
2023-10-17T21:18:50.643Z,28.02
2023-10-17T21:21:18.019Z,26.92
2023-10-17T21:23:45.662Z,105.95
2023-10-17T21:26:16.451Z,42.60
2023-10-17T21:28:44.294Z,68.68
2023-10-17T21:31:11.786Z,57.47
2023-10-17T21:33:39.107Z,30.10
